createdAt,value
2022-11-25T00:00:33.731Z,15.74
2022-11-25T00:03:22.673Z,15.54
2022-11-25T00:06:22.011Z,15.40
2022-11-25T00:09:16.618Z,15.51
2022-11-25T00:12:05.732Z,15.36
2022-11-25T00:14:48.055Z,15.24
2022-11-25T00:17:36.705Z,15.22
2022-11-25T00:20:21.480Z,15.44
2022-11-25T00:23:10.654Z,15.20
2022-11-25T00:25:59.734Z,15.09
2022-11-25T00:28:50.980Z,15.12
2022-11-25T00:31:41.769Z,15.13
2022-11-25T00:34:23.936Z,15.01
2022-11-25T00:37:12.622Z,15.23
2022-11-25T00:40:01.603Z,15.29
2022-11-25T00:43:01.930Z,15.09
2022-11-25T00:45:52.667Z,14.91
2022-11-25T00:48:34.887Z,14.99
2022-11-25T00:51:23.622Z,14.92
2022-11-25T00:54:12.591Z,15.01
2022-11-25T00:57:01.774Z,15.15
2022-11-25T00:59:44.078Z,14.88
2022-11-25T01:02:35.666Z,14.86
2022-11-25T01:05:20.853Z,14.80
2022-11-25T01:08:09.699Z,14.93
2022-11-25T01:11:02.675Z,14.82
2022-11-25T01:13:54.432Z,14.80
2022-11-25T01:16:46.147Z,14.62
2022-11-25T01:19:28.677Z,14.37
2022-11-25T01:22:17.930Z,14.38
2022-11-25T01:25:01.039Z,14.20
2022-11-25T01:27:50.736Z,14.45
2022-11-25T01:30:41.586Z,14.33
2022-11-25T01:33:23.905Z,14.17
2022-11-25T01:36:25.750Z,14.05
2022-11-25T01:39:08.036Z,13.95
2022-11-25T01:41:56.719Z,13.96
2022-11-25T01:44:40.618Z,14.00
2022-11-25T01:47:25.551Z,14.01
2022-11-25T01:50:25.995Z,14.02
2022-11-25T01:53:17.959Z,14.33
2022-11-25T01:56:06.734Z,14.56
2022-11-25T01:58:56.959Z,14.41
2022-11-25T02:01:39.791Z,14.43
2022-11-25T02:04:23.696Z,14.68
2022-11-25T02:07:19.666Z,14.57
2022-11-25T02:10:04.015Z,14.56
2022-11-25T02:12:56.700Z,14.61
2022-11-25T02:15:39.101Z,14.71
2022-11-25T02:18:27.677Z,14.92
2022-11-25T02:21:10.391Z,14.93
2022-11-25T02:24:26.614Z,15.12
2022-11-25T02:27:16.972Z,15.39
2022-11-25T02:30:05.763Z,15.41
2022-11-25T02:32:52.960Z,15.51
2022-11-25T02:35:43.666Z,15.70
2022-11-25T02:38:34.017Z,15.78
2022-11-25T02:41:29.567Z,15.80
2022-11-25T02:44:20.583Z,15.89
2022-11-25T02:47:08.961Z,15.99
2022-11-25T02:49:51.705Z,16.05
2022-11-25T02:52:34.138Z,16.14
2022-11-25T02:55:24.716Z,16.11
2022-11-25T02:58:13.021Z,16.37
2022-11-25T03:00:55.801Z,16.50
2022-11-25T03:03:44.996Z,16.64
2022-11-25T03:06:27.728Z,16.69
2022-11-25T03:09:15.949Z,16.85
2022-11-25T03:12:16.612Z,17.00
2022-11-25T03:15:08.015Z,16.72
2022-11-25T03:17:50.739Z,17.27
2022-11-25T03:20:40.028Z,17.61
2022-11-25T03:23:21.712Z,17.79
2022-11-25T03:26:14.989Z,18.12
2022-11-25T03:28:57.670Z,18.00
2022-11-25T03:31:54.780Z,18.50
2022-11-25T03:34:43.643Z,18.85
2022-11-25T03:37:33.597Z,19.10
2022-11-25T03:40:25.126Z,19.67
2022-11-25T03:43:07.692Z,19.99
2022-11-25T03:45:52.947Z,20.39
2022-11-25T03:48:42.629Z,20.66
2022-11-25T03:51:30.964Z,21.18
2022-11-25T03:54:13.792Z,21.64
2022-11-25T03:57:21.903Z,22.17
2022-11-25T04:00:10.624Z,22.32
2022-11-25T04:03:03.957Z,22.50
2022-11-25T04:05:52.655Z,22.50
2022-11-25T04:08:42.047Z,22.69
2022-11-25T04:11:24.711Z,22.92
2022-11-25T04:14:13.957Z,23.20
2022-11-25T04:16:56.782Z,23.16
2022-11-25T04:19:46.127Z,23.57
2022-11-25T04:22:27.795Z,23.48
2022-11-25T04:25:19.996Z,23.31
2022-11-25T04:28:03.569Z,23.02
2022-11-25T04:30:53.012Z,23.54
2022-11-25T04:33:36.595Z,23.59
2022-11-25T04:36:25.962Z,23.49
2022-11-25T04:39:08.650Z,23.50
2022-11-25T04:41:57.638Z,23.74
2022-11-25T04:44:39.996Z,23.69
2022-11-25T04:47:28.668Z,23.96
2022-11-25T04:50:13.919Z,23.95
2022-11-25T04:53:20.642Z,24.01
2022-11-25T04:56:04.152Z,24.33
2022-11-25T04:59:16.658Z,24.32
2022-11-25T05:01:58.974Z,24.36
2022-11-25T05:04:54.548Z,24.24
2022-11-25T05:07:38.361Z,24.11
2022-11-25T05:10:29.719Z,24.35
2022-11-25T05:13:12.012Z,24.08
2022-11-25T05:16:00.582Z,24.37
2022-11-25T05:18:43.944Z,24.33
2022-11-25T05:21:32.650Z,23.92
2022-11-25T05:24:15.118Z,24.57
2022-11-25T05:27:06.703Z,24.84
2022-11-25T05:29:55.543Z,24.84
2022-11-25T05:32:44.577Z,24.98
2022-11-25T05:35:29.096Z,24.96
2022-11-25T05:38:17.611Z,25.51
2022-11-25T05:41:01.983Z,25.70
2022-11-25T05:43:50.699Z,25.59
2022-11-25T05:46:39.660Z,25.71
2022-11-25T05:49:29.039Z,25.90
2022-11-25T05:52:11.643Z,25.85
2022-11-25T05:55:01.013Z,25.73
2022-11-25T05:57:49.701Z,26.05
2022-11-25T06:00:38.949Z,26.03
2022-11-25T06:03:21.648Z,26.06
2022-11-25T06:06:10.609Z,26.30
2022-11-25T06:09:00.610Z,26.38
2022-11-25T06:11:45.046Z,26.36
2022-11-25T06:14:33.771Z,26.30
2022-11-25T06:17:22.679Z,26.45
2022-11-25T06:20:16.967Z,26.40
2022-11-25T06:23:07.564Z,26.50
2022-11-25T06:25:56.703Z,26.54
2022-11-25T06:28:44.987Z,26.74
2022-11-25T06:31:41.861Z,26.76
2022-11-25T06:34:58.850Z,26.50
2022-11-25T06:37:59.626Z,26.69
2022-11-25T06:40:48.681Z,26.36
2022-11-25T06:43:30.979Z,26.55
2022-11-25T06:46:25.546Z,26.75
2022-11-25T06:49:08.935Z,26.48
2022-11-25T06:52:00.746Z,26.08
2022-11-25T06:54:43.061Z,26.45
2022-11-25T06:57:31.688Z,26.45
2022-11-25T07:00:15.012Z,26.48
2022-11-25T07:03:03.640Z,26.45
2022-11-25T07:05:45.972Z,26.50
2022-11-25T07:08:35.608Z,26.62
2022-11-25T07:11:32.936Z,26.98
2022-11-25T07:14:23.696Z,26.99
2022-11-25T07:17:11.597Z,26.88
2022-11-25T07:20:00.744Z,27.08
2022-11-25T07:22:42.942Z,26.88
2022-11-25T07:25:31.643Z,26.81
2022-11-25T07:28:13.981Z,26.85
2022-11-25T07:34:12.244Z,26.55
2022-11-25T07:37:00.639Z,26.65
2022-11-25T07:39:42.943Z,26.93
2022-11-25T07:42:31.736Z,26.86
2022-11-25T07:45:17.994Z,26.78
2022-11-25T07:48:19.628Z,26.86
2022-11-25T07:51:02.015Z,26.76
2022-11-25T07:53:50.685Z,26.76
2022-11-25T07:56:33.168Z,26.79
2022-11-25T07:59:24.672Z,26.94
2022-11-25T08:02:07.046Z,26.91
2022-11-25T08:04:55.708Z,26.90
2022-11-25T08:07:37.965Z,27.05
2022-11-25T08:10:27.625Z,27.13
2022-11-25T08:13:16.695Z,26.91
2022-11-25T08:16:02.010Z,26.85
2022-11-25T08:18:50.784Z,26.88
2022-11-25T08:21:38.967Z,27.00
2022-11-25T08:24:26.886Z,27.03
2022-11-25T08:27:08.818Z,26.91
2022-11-25T08:29:57.676Z,26.96
2022-11-25T08:32:53.549Z,26.80
2022-11-25T08:35:45.598Z,26.80
2022-11-25T08:38:27.927Z,26.91
2022-11-25T08:41:44.629Z,26.96
2022-11-25T08:44:29.343Z,26.82
2022-11-25T08:47:18.660Z,26.73
2022-11-25T08:50:02.575Z,26.68
2022-11-25T08:52:51.648Z,26.78
2022-11-25T08:55:40.519Z,26.70
2022-11-25T08:58:29.540Z,26.67
2022-11-25T09:01:12.887Z,26.79
2022-11-25T09:04:04.610Z,26.50
2022-11-25T09:06:52.931Z,26.47
2022-11-25T09:09:35.797Z,26.58
2022-11-25T09:12:18.094Z,26.64
2022-11-25T09:15:06.689Z,26.58
2022-11-25T09:17:55.927Z,26.56
2022-11-25T09:20:39.679Z,26.51
2022-11-25T09:23:26.063Z,26.57
2022-11-25T09:26:18.562Z,26.49
2022-11-25T09:29:14.560Z,26.48
2022-11-25T09:32:02.919Z,26.42
2022-11-25T09:34:45.672Z,26.37
2022-11-25T09:37:35.271Z,26.33
2022-11-25T09:40:35.671Z,26.28
2022-11-25T09:43:47.216Z,26.31
2022-11-25T09:47:10.722Z,26.37
2022-11-25T09:50:34.160Z,26.15
2022-11-25T09:53:33.661Z,26.09
2022-11-25T09:56:32.935Z,26.10
2022-11-25T09:59:39.735Z,26.22
2022-11-25T10:02:35.125Z,26.16
2022-11-25T10:05:57.542Z,26.06
2022-11-25T10:08:53.977Z,26.07
2022-11-25T10:11:57.580Z,25.97
2022-11-25T10:15:04.031Z,25.86
2022-11-25T10:18:11.530Z,25.82
2022-11-25T10:20:54.499Z,25.66
2022-11-25T10:23:48.597Z,25.60
2022-11-25T10:26:38.549Z,25.53
2022-11-25T10:29:43.651Z,25.52
2022-11-25T10:32:42.511Z,25.49
2022-11-25T10:35:54.669Z,25.47
2022-11-25T10:39:00.675Z,25.26
2022-11-25T10:41:58.794Z,25.12
2022-11-25T10:44:48.925Z,25.21
2022-11-25T10:47:55.703Z,25.09
2022-11-25T10:50:59.784Z,25.02
2022-11-25T10:53:47.883Z,24.81
2022-11-25T10:56:29.604Z,24.60
2022-11-25T10:59:33.992Z,24.60
2022-11-25T11:02:15.733Z,24.41
2022-11-25T11:05:09.680Z,24.36
2022-11-25T11:07:52.992Z,24.28
2022-11-25T11:10:41.650Z,24.06
2022-11-25T11:13:34.347Z,23.99
2022-11-25T11:16:44.689Z,23.84
2022-11-25T11:19:36.908Z,23.74
2022-11-25T11:22:34.045Z,23.70
2022-11-25T11:25:28.701Z,23.52
2022-11-25T11:28:45.636Z,23.44
2022-11-25T11:32:08.530Z,23.26
2022-11-25T11:35:03.632Z,23.10
2022-11-25T11:37:57.743Z,22.96
2022-11-25T11:40:54.495Z,22.90
2022-11-25T11:44:04.613Z,22.81
2022-11-25T11:47:05.987Z,22.64
2022-11-25T11:50:10.572Z,22.55
2022-11-25T11:53:03.601Z,22.44
2022-11-25T11:56:33.531Z,22.30
2022-11-25T11:59:24.665Z,22.23
2022-11-25T12:02:13.598Z,22.14
2022-11-25T12:05:18.179Z,22.07
2022-11-25T12:08:17.550Z,22.00
2022-11-25T12:11:29.603Z,21.97
2022-11-25T12:14:35.014Z,21.86
2022-11-25T12:17:41.992Z,21.80
2022-11-25T12:21:03.664Z,21.72
2022-11-25T12:23:48.928Z,21.66
2022-11-25T12:26:44.578Z,21.64
2022-11-25T12:29:58.903Z,21.59
2022-11-25T12:32:51.163Z,21.51
2022-11-25T12:35:59.941Z,21.45
2022-11-25T12:38:55.613Z,21.35
2022-11-25T12:42:02.888Z,21.33
2022-11-25T12:45:15.549Z,21.35
2022-11-25T12:47:58.896Z,21.26
2022-11-25T12:51:07.636Z,21.19
2022-11-25T12:54:20.520Z,21.16
2022-11-25T12:57:37.623Z,21.18
2022-11-25T13:00:42.473Z,21.09
2022-11-25T13:03:42.946Z,21.05
2022-11-25T13:06:27.518Z,21.01
2022-11-25T13:09:22.468Z,20.86
2022-11-25T13:12:18.827Z,20.80
2022-11-25T13:15:04.249Z,20.79
2022-11-25T13:17:57.707Z,20.73
2022-11-25T13:20:54.502Z,20.73
2022-11-25T13:23:37.927Z,20.63
2022-11-25T13:26:56.597Z,20.62
2022-11-25T13:29:38.880Z,20.52
2022-11-25T13:32:48.504Z,20.56
2022-11-25T13:35:32.005Z,20.51
2022-11-25T13:39:15.656Z,20.51
2022-11-25T13:42:21.133Z,20.45
2022-11-25T13:45:09.756Z,20.35
2022-11-25T13:47:57.071Z,20.32
2022-11-25T13:51:10.218Z,20.37
2022-11-25T13:53:48.866Z,20.30
2022-11-25T13:56:39.665Z,20.28
2022-11-25T13:59:22.098Z,20.24
2022-11-25T14:02:36.845Z,20.21
2022-11-25T14:05:30.889Z,20.16
2022-11-25T14:08:19.651Z,20.05
2022-11-25T14:11:17.895Z,19.99
2022-11-25T14:14:12.660Z,19.96
2022-11-25T14:17:13.645Z,19.98
2022-11-25T14:20:35.618Z,19.95
2022-11-25T14:24:06.913Z,19.95
2022-11-25T14:27:00.659Z,19.88
2022-11-25T14:29:55.628Z,19.81
2022-11-25T14:33:14.671Z,19.80
2022-11-25T14:36:10.095Z,19.73
2022-11-25T14:38:58.605Z,19.65
2022-11-25T14:41:51.393Z,19.65
2022-11-25T14:44:47.600Z,19.66
2022-11-25T14:47:38.608Z,19.66
2022-11-25T14:50:35.843Z,19.54
2022-11-25T14:53:17.809Z,19.57
2022-11-25T14:56:08.603Z,19.60
2022-11-25T14:58:53.759Z,19.60
2022-11-25T15:01:45.649Z,19.46
2022-11-25T15:04:34.652Z,19.44
2022-11-25T15:07:37.638Z,19.47
2022-11-25T15:10:38.618Z,19.46
2022-11-25T15:13:33.142Z,19.38
2022-11-25T15:16:21.740Z,19.41
2022-11-25T15:19:13.589Z,19.29
2022-11-25T15:22:24.287Z,19.30
2022-11-25T15:25:16.865Z,19.23
2022-11-25T15:28:06.625Z,19.25
2022-11-25T15:30:48.937Z,19.17
2022-11-25T15:33:38.507Z,19.15
2022-11-25T15:36:20.924Z,19.14
2022-11-25T15:39:29.481Z,19.11
2022-11-25T15:42:35.076Z,19.04
2022-11-25T15:45:29.542Z,19.02
2022-11-25T15:48:12.947Z,18.98
2022-11-25T15:51:09.540Z,18.97
2022-11-25T15:53:53.030Z,18.96
2022-11-25T15:56:46.602Z,18.95
2022-11-25T15:59:57.612Z,18.95
2022-11-25T16:02:47.964Z,18.82
2022-11-25T16:05:51.587Z,18.78
2022-11-25T16:08:41.986Z,18.78
2022-11-25T16:11:27.590Z,18.73
2022-11-25T16:14:38.113Z,18.75
2022-11-25T16:17:22.602Z,18.71
2022-11-25T16:20:11.901Z,18.73
2022-11-25T16:22:54.603Z,18.57
2022-11-25T16:25:43.992Z,18.55
2022-11-25T16:28:30.634Z,18.64
2022-11-25T16:31:31.621Z,18.53
2022-11-25T16:34:16.970Z,18.47
2022-11-25T16:37:05.585Z,18.40
2022-11-25T16:39:55.023Z,18.40
2022-11-25T16:42:36.587Z,18.39
2022-11-25T16:45:29.679Z,18.37
2022-11-25T16:48:32.580Z,18.38
2022-11-25T16:55:10.480Z,18.30
2022-11-25T16:57:55.453Z,18.19
2022-11-25T17:00:44.649Z,18.10
2022-11-25T17:03:34.606Z,18.13
2022-11-25T17:06:29.164Z,18.14
2022-11-25T17:09:11.522Z,18.02
2022-11-25T17:12:02.677Z,18.01
2022-11-25T17:14:45.146Z,17.96
2022-11-25T17:17:35.589Z,17.97
2022-11-25T17:20:36.633Z,18.12
2022-11-25T17:23:27.638Z,18.07
2022-11-25T17:26:10.516Z,17.98
2022-11-25T17:29:07.518Z,18.02
2022-11-25T17:31:55.104Z,18.02
2022-11-25T17:34:47.480Z,18.04
2022-11-25T17:37:33.755Z,17.98
2022-11-25T17:40:23.612Z,17.89
2022-11-25T17:43:06.753Z,17.79
2022-11-25T17:45:55.584Z,17.73
2022-11-25T17:48:45.513Z,17.68
2022-11-25T17:51:34.614Z,17.72
2022-11-25T17:54:17.016Z,17.72
2022-11-25T17:57:06.550Z,17.76
2022-11-25T17:59:49.045Z,17.72
2022-11-25T18:02:37.752Z,17.75
2022-11-25T18:05:28.026Z,17.70
2022-11-25T18:08:16.670Z,17.74
2022-11-25T18:10:59.062Z,17.72
2022-11-25T18:13:49.681Z,17.68
2022-11-25T18:16:32.310Z,17.61
2022-11-25T18:19:21.668Z,17.59
2022-11-25T18:22:14.051Z,17.61
2022-11-25T18:25:07.968Z,17.63
2022-11-25T18:27:55.299Z,17.56
2022-11-25T18:30:46.670Z,17.51
2022-11-25T18:33:28.961Z,17.51
2022-11-25T18:36:21.526Z,17.57
2022-11-25T18:39:03.859Z,17.62
2022-11-25T18:41:53.631Z,17.53
2022-11-25T18:44:44.346Z,17.52
2022-11-25T18:47:33.580Z,17.45
2022-11-25T18:50:28.036Z,17.39
2022-11-25T18:53:16.606Z,17.42
2022-11-25T18:55:58.943Z,17.30
2022-11-25T18:58:47.511Z,17.30
2022-11-25T19:01:31.124Z,17.29
2022-11-25T19:04:25.537Z,17.36
2022-11-25T19:07:07.971Z,17.27
2022-11-25T19:09:56.520Z,17.12
2022-11-25T19:12:38.951Z,17.04
2022-11-25T19:15:31.625Z,17.09
2022-11-25T19:18:15.062Z,17.01
2022-11-25T19:21:03.604Z,16.94
2022-11-25T19:23:46.034Z,16.93
2022-11-25T19:26:41.533Z,17.06
2022-11-25T19:29:45.908Z,17.00
2022-11-25T19:32:37.467Z,17.10
2022-11-25T19:35:28.067Z,17.03
2022-11-25T19:38:25.474Z,16.89
2022-11-25T19:41:07.913Z,16.90
2022-11-25T19:43:56.561Z,16.80
2022-11-25T19:47:13.668Z,16.84
2022-11-25T19:50:32.614Z,16.94
2022-11-25T19:53:35.391Z,17.05
2022-11-25T19:56:26.591Z,17.08
2022-11-25T19:59:09.452Z,16.93
2022-11-25T20:01:58.644Z,16.82
2022-11-25T20:04:42.049Z,16.67
2022-11-25T20:07:30.711Z,16.79
2022-11-25T20:10:28.919Z,16.88
2022-11-25T20:13:18.599Z,16.90
2022-11-25T20:16:02.929Z,16.92
2022-11-25T20:18:51.533Z,16.81
2022-11-25T20:21:37.022Z,16.80
2022-11-25T20:24:27.483Z,16.87
2022-11-25T20:27:16.721Z,16.87
2022-11-25T20:30:05.820Z,16.83
2022-11-25T20:32:48.619Z,16.82
2022-11-25T20:35:36.868Z,16.83
2022-11-25T20:38:39.592Z,17.12
2022-11-25T20:41:30.558Z,17.10
2022-11-25T20:44:12.816Z,17.07
2022-11-25T20:47:01.477Z,16.97
2022-11-25T20:49:43.847Z,16.89
2022-11-25T20:52:42.518Z,16.83
2022-11-25T20:55:32.977Z,16.64
2022-11-25T20:58:37.573Z,16.49
2022-11-25T21:01:26.943Z,16.47
2022-11-25T21:04:09.571Z,16.44
2022-11-25T21:06:57.861Z,16.31
2022-11-25T21:09:42.545Z,16.36
2022-11-25T21:12:24.817Z,16.34
2022-11-25T21:15:13.457Z,16.24
2022-11-25T21:18:02.584Z,16.30
2022-11-25T21:20:52.589Z,16.33
2022-11-25T21:23:45.917Z,16.40
2022-11-25T21:26:30.632Z,16.37
2022-11-25T21:29:23.453Z,16.37
2022-11-25T21:32:05.914Z,16.31
2022-11-25T21:34:54.578Z,16.15
2022-11-25T21:37:42.858Z,16.19
2022-11-25T21:40:49.620Z,16.25
2022-11-25T21:43:37.872Z,16.19
2022-11-25T21:46:28.652Z,16.09
2022-11-25T21:49:16.801Z,16.07
2022-11-25T21:52:05.539Z,15.96
2022-11-25T21:55:01.516Z,15.92
2022-11-25T21:57:51.573Z,16.04
2022-11-25T22:00:33.862Z,16.03
2022-11-25T22:03:26.573Z,16.03
2022-11-25T22:06:08.844Z,16.06
2022-11-25T22:08:58.933Z,16.03
2022-11-25T22:11:43.907Z,15.90
2022-11-25T22:14:44.570Z,15.81
2022-11-25T22:17:27.809Z,15.97
2022-11-25T22:20:34.486Z,16.03
2022-11-25T22:23:25.846Z,16.08
2022-11-25T22:26:15.525Z,15.99
2022-11-25T22:29:01.086Z,15.86
2022-11-25T22:31:50.589Z,15.97
2022-11-25T22:34:32.923Z,16.05
2022-11-25T22:37:29.452Z,15.92
2022-11-25T22:40:12.196Z,15.76
2022-11-25T22:43:03.529Z,15.77
2022-11-25T22:45:47.004Z,15.74
2022-11-25T22:48:44.496Z,15.76
2022-11-25T22:51:35.289Z,15.80
2022-11-25T22:54:24.423Z,15.82
2022-11-25T22:57:06.857Z,15.77
2022-11-25T22:59:55.570Z,15.82
2022-11-25T23:02:41.810Z,15.77
2022-11-25T23:05:44.524Z,15.87
2022-11-25T23:08:39.432Z,15.81
2022-11-25T23:11:29.435Z,15.72
2022-11-25T23:14:11.899Z,15.78
2022-11-25T23:17:00.566Z,15.80
2022-11-25T23:19:49.439Z,15.69
2022-11-25T23:22:39.653Z,15.74
2022-11-25T23:25:31.372Z,15.75
2022-11-25T23:28:20.562Z,15.68
2022-11-25T23:31:15.524Z,15.59
2022-11-25T23:34:04.495Z,15.59
2022-11-25T23:37:01.483Z,15.64
2022-11-25T23:39:50.426Z,15.60
2022-11-25T23:42:32.801Z,15.51
2022-11-25T23:45:27.647Z,15.63
2022-11-25T23:48:11.818Z,15.50
2022-11-25T23:51:03.548Z,15.54
2022-11-25T23:53:55.466Z,15.31
2022-11-25T23:56:45.490Z,15.28
2022-11-25T23:59:30.930Z,15.33
